Time;durP1;ratioP1;P1;durP2;ratioP2;P2;SDS_P1;SDS_P2;PMS_P1;PMS_P2;Temp;Humidity;BMP_temperature;BMP_pressure;BME280_temperature;BME280_humidity;BME280_pressure;Samples;Min_cycle;Max_cycle;Signal;HPM_P1;HPM_P2
2023/06/10 00:01:24;;;;;;;5.97;4.00;;;21.40;57.60;;;23.99;42.06;101696.34;5056140;28;20207;-63
2023/06/10 00:03:51;;;;;;;4.83;3.37;;;21.30;58.10;;;23.95;41.95;101697.88;5054898;28;20236;-63
2023/06/10 00:06:21;;;;;;;5.43;3.90;;;21.30;58.30;;;23.92;41.84;101695.66;5055663;28;20667;-64
2023/06/10 00:08:49;;;;;;;7.37;3.67;;;21.20;58.70;;;23.88;42.24;101701.75;5051017;28;20302;-63
2023/06/10 00:11:16;;;;;;;6.70;4.17;;;21.20;58.80;;;23.85;42.54;101697.69;5035861;28;20274;-63
2023/06/10 00:13:43;;;;;;;6.33;3.90;;;21.10;59.20;;;23.82;42.17;101695.44;5035887;28;20191;-64
2023/06/10 00:16:10;;;;;;;5.67;3.77;;;21.10;59.60;;;23.79;42.92;101695.94;5035732;28;20305;-63
2023/06/10 00:18:38;;;;;;;12.93;4.10;;;21.10;59.70;;;23.77;42.95;101686.50;5036578;28;20236;-64
2023/06/10 00:21:05;;;;;;;6.47;3.90;;;21.10;60.20;;;23.74;42.91;101687.78;5036558;28;20256;-63
2023/06/10 00:23:37;;;;;;;5.63;3.87;;;21.00;60.20;;;23.73;43.23;101696.88;5037505;28;20262;-64
2023/06/10 00:26:06;;;;;;;6.63;3.50;;;21.00;60.70;;;23.72;43.19;101695.28;5047999;28;20245;-66
2023/06/10 00:28:33;;;;;;;5.10;4.03;;;21.00;61.60;;;23.70;43.37;101696.56;5058365;28;20213;-65
2023/06/10 00:31:00;;;;;;;5.93;4.27;;;21.00;61.20;;;23.68;43.68;101693.31;5058161;28;20273;-64
2023/06/10 00:33:27;;;;;;;4.17;3.13;;;21.00;61.70;;;23.69;43.58;101698.44;5059827;28;20236;-64
2023/06/10 00:35:54;;;;;;;5.20;3.77;;;21.00;62.00;;;23.69;43.52;101700.28;5056886;28;20237;-61
2023/06/10 00:38:21;;;;;;;7.00;3.60;;;21.00;61.70;;;23.65;43.63;101697.28;5059497;28;20189;-63
2023/06/10 00:40:49;;;;;;;6.13;3.87;;;20.90;61.70;;;23.64;43.87;101698.31;5056300;28;20388;-63
2023/06/10 00:43:17;;;;;;;5.00;4.37;;;20.90;62.40;;;23.62;43.73;101700.44;5058223;28;20577;-63
2023/06/10 00:45:44;;;;;;;7.47;4.70;;;20.90;62.20;;;23.63;43.80;101701.25;5058355;28;20214;-62
2023/06/10 00:48:12;;;;;;;6.63;3.90;;;20.90;62.20;;;23.58;43.73;101700.06;5058501;28;20300;-64
2023/06/10 00:50:39;;;;;;;6.60;3.73;;;20.90;62.50;;;23.55;44.01;101703.25;5059189;28;20273;-64
2023/06/10 00:53:06;;;;;;;10.80;9.80;;;20.80;62.70;;;23.52;44.18;101710.97;5044040;28;20277;-64
2023/06/10 00:55:34;;;;;;;6.80;4.47;;;20.80;62.80;;;23.49;44.21;101706.03;5055044;28;20241;-65
2023/06/10 00:58:02;;;;;;;9.43;4.50;;;20.80;62.90;;;23.45;44.41;101710.28;5055222;28;20725;-63
2023/06/10 01:00:30;;;;;;;7.83;4.50;;;20.80;63.20;;;23.45;44.56;101711.09;5055117;28;20286;-63
2023/06/10 01:02:57;;;;;;;5.97;3.97;;;20.80;63.60;;;23.44;44.58;101711.31;5037813;28;20270;-63
2023/06/10 01:05:25;;;;;;;8.60;5.43;;;20.70;63.60;;;23.41;44.85;101714.50;5055034;28;20232;-63
2023/06/10 01:08:05;;;;;;;6.90;4.40;;;20.70;64.20;;;23.36;45.25;101712.50;5048263;28;20425;-64
2023/06/10 01:10:41;;;;;;;7.00;4.70;;;20.70;64.60;;;23.34;45.13;101719.13;5047238;28;20272;-64
2023/06/10 01:13:11;;;;;;;5.30;4.30;;;20.70;64.30;;;23.33;45.22;101722.88;5054983;28;20198;-64
2023/06/10 01:15:40;;;;;;;5.97;4.23;;;20.70;64.60;;;23.31;45.20;101708.84;5038970;28;20218;-63
2023/06/10 01:18:09;;;;;;;6.83;4.20;;;20.60;64.60;;;23.28;45.26;101720.06;5034643;28;20244;-62
2023/06/10 01:20:41;;;;;;;6.37;4.10;;;20.60;64.70;;;23.23;45.47;101722.63;5034579;28;20187;-63
2023/06/10 01:23:10;;;;;;;7.77;4.50;;;20.60;65.10;;;23.19;45.38;101732.22;5032943;28;20631;-63
2023/06/10 01:25:40;;;;;;;5.43;4.40;;;20.50;65.30;;;23.15;45.79;101725.69;5041109;28;20217;-64
2023/06/10 01:28:14;;;;;;;6.93;4.50;;;20.50;65.50;;;23.08;46.12;101728.47;5041231;28;20219;-63
2023/06/10 01:30:53;;;;;;;6.33;3.93;;;20.40;65.80;;;23.04;46.19;101729.16;5034636;28;20574;-64
2023/06/10 01:33:29;;;;;;;6.00;4.53;;;20.40;66.30;;;22.98;46.49;101730.91;5034075;28;20262;-64
2023/06/10 01:35:58;;;;;;;6.77;4.27;;;20.30;66.40;;;22.96;46.38;101729.50;5034367;28;20222;-63
2023/06/10 01:38:30;;;;;;;6.93;3.87;;;20.30;66.80;;;22.92;46.67;101731.03;5034841;28;20190;-63
2023/06/10 01:40:58;;;;;;;5.93;4.17;;;20.20;67.90;;;22.88;47.00;101733.34;5042960;28;20255;-63
2023/06/10 01:43:25;;;;;;;7.70;3.87;;;20.20;67.20;;;22.85;46.67;101737.31;5053305;28;20685;-64
2023/06/10 01:45:52;;;;;;;7.10;3.60;;;20.10;67.30;;;22.81;46.83;101736.16;5054256;28;20210;-63
2023/06/10 01:48:19;;;;;;;5.97;3.87;;;20.10;67.50;;;22.78;47.11;101730.41;5054081;28;20292;-64
2023/06/10 01:50:46;;;;;;;7.20;4.30;;;20.10;67.90;;;22.73;47.43;101728.41;5053818;28;20277;-64
2023/06/10 01:53:13;;;;;;;5.97;3.80;;;20.10;68.20;;;22.70;47.70;101738.81;5053811;28;20201;-62
2023/06/10 01:55:41;;;;;;;7.23;4.33;;;20.00;68.40;;;22.67;47.63;101740.09;5054058;28;20616;-64
2023/06/10 01:58:08;;;;;;;7.00;4.30;;;20.00;68.40;;;22.63;47.60;101738.09;5054013;28;20646;-63
2023/06/10 02:00:35;;;;;;;6.23;3.60;;;19.90;68.60;;;22.59;47.55;101748.41;5037696;28;20222;-63
2023/06/10 02:03:02;;;;;;;4.87;4.07;;;19.90;68.70;;;22.56;47.70;101738.13;5053797;28;20747;-63
2023/06/10 02:05:29;;;;;;;7.17;4.77;;;19.90;68.90;;;22.54;48.06;101744.78;5054107;28;20217;-64
2023/06/10 02:07:56;;;;;;;7.47;4.00;;;19.80;69.00;;;22.50;47.71;101744.44;5046222;28;20646;-64
2023/06/10 02:10:24;;;;;;;7.00;4.33;;;19.80;69.20;;;22.46;48.02;101732.53;5034197;28;20190;-63
2023/06/10 02:12:52;;;;;;;6.67;4.30;;;19.80;69.50;;;22.45;47.53;101736.25;5033825;28;20226;-63
2023/06/10 02:15:19;;;;;;;7.70;4.50;;;19.70;69.50;;;22.41;48.38;101740.44;5033858;28;20249;-63
2023/06/10 02:17:46;;;;;;;5.73;4.30;;;19.70;69.70;;;22.42;47.97;101742.06;5035169;28;20190;-63
2023/06/10 02:20:14;;;;;;;6.23;4.33;;;19.70;69.80;;;22.39;48.20;101755.94;5048788;28;20198;-64
2023/06/10 02:22:41;;;;;;;8.30;3.97;;;19.70;69.90;;;22.36;48.33;101758.25;5034015;28;20273;-63
2023/06/10 02:25:09;;;;;;;6.63;3.97;;;19.70;70.10;;;22.33;48.44;101759.53;5036094;28;20225;-63
2023/06/10 02:27:36;;;;;;;7.40;4.43;;;19.60;70.20;;;22.30;48.69;101764.53;5053811;28;20263;-63
2023/06/10 02:30:06;;;;;;;6.33;4.70;;;19.60;70.20;;;22.24;48.63;101772.44;5053350;28;20224;-63
2023/06/10 02:32:33;;;;;;;6.83;4.03;;;19.60;70.30;;;22.18;48.68;101773.31;5051692;28;20245;-62
2023/06/10 02:35:01;;;;;;;7.77;4.10;;;19.50;70.40;;;22.17;49.01;101778.94;5052920;28;20217;-62
2023/06/10 02:37:28;;;;;;;5.43;4.00;;;19.50;71.00;;;22.19;48.76;101776.84;5041695;28;20593;-63
2023/06/10 02:39:55;;;;;;;6.03;4.13;;;19.50;70.80;;;22.20;49.12;101773.91;5033648;28;20194;-63
2023/06/10 02:42:22;;;;;;;4.80;3.70;;;19.50;71.20;;;22.24;49.00;101774.31;5053230;28;20664;-63
2023/06/10 02:44:49;;;;;;;6.43;4.17;;;19.40;71.10;;;22.25;48.86;101779.44;5053231;28;20232;-63
2023/06/10 02:47:17;;;;;;;5.87;3.97;;;19.50;71.00;;;22.25;48.83;101773.25;5034643;28;20577;-62
2023/06/10 02:49:45;;;;;;;5.33;3.60;;;19.50;71.30;;;22.22;49.16;101776.41;5033776;28;20560;-63
2023/06/10 02:52:12;;;;;;;7.80;5.03;;;19.40;71.50;;;22.19;49.19;101774.16;5033432;28;20277;-62
2023/06/10 02:54:39;;;;;;;5.87;4.73;;;19.40;71.70;;;22.18;49.18;101769.81;5033037;28;20630;-63
2023/06/10 02:57:06;;;;;;;8.43;5.30;;;19.40;71.70;;;22.14;49.64;101776.69;5052566;28;20285;-63
2023/06/10 02:59:34;;;;;;;8.33;5.07;;;19.40;72.10;;;22.03;49.55;101769.41;5053343;28;20204;-64
2023/06/10 03:02:01;;;;;;;7.03;6.07;;;19.30;72.10;;;21.97;49.56;101767.59;5053056;28;20200;-62
2023/06/10 03:04:30;;;;;;;7.13;5.07;;;19.20;72.10;;;21.89;49.53;101767.94;5055714;28;20271;-64
2023/06/10 03:06:57;;;;;;;8.17;5.60;;;19.20;72.20;;;21.85;49.83;101764.84;5056526;28;20190;-65
2023/06/10 03:09:24;;;;;;;7.50;4.60;;;19.20;72.40;;;21.85;50.15;101761.34;5037520;28;20222;-63
2023/06/10 03:11:51;;;;;;;8.53;4.83;;;19.10;72.90;;;21.81;50.53;101766.31;5037191;28;20194;-63
2023/06/10 03:14:18;;;;;;;5.27;4.80;;;19.00;73.00;;;21.80;50.53;101753.16;5036538;28;20194;-64
2023/06/10 03:16:45;;;;;;;7.93;4.60;;;19.00;73.20;;;21.81;50.64;101755.59;5036804;28;20589;-63
2023/06/10 03:19:12;;;;;;;7.13;4.40;;;19.00;73.30;;;21.84;50.01;101765.91;5047543;28;20194;-63
2023/06/10 03:21:44;;;;;;;6.17;4.67;;;18.90;73.30;;;21.86;49.83;101766.50;5056898;28;20557;-63
2023/06/10 03:24:12;;;;;;;6.77;5.30;;;19.00;73.20;;;21.90;50.18;101764.19;5056049;28;20265;-63
2023/06/10 03:26:39;;;;;;;8.43;4.83;;;19.00;73.20;;;21.93;50.16;101771.78;5056774;28;20197;-63
2023/06/10 03:29:06;;;;;;;5.70;4.80;;;19.10;73.00;;;21.95;49.82;101772.38;5056999;28;20210;-64
2023/06/10 03:31:35;;;;;;;8.97;5.30;;;19.10;72.70;;;21.92;49.35;101767.44;5056758;28;20190;-65
2023/06/10 03:34:02;;;;;;;6.87;5.43;;;19.10;72.20;;;21.85;49.72;101769.38;5041145;28;20213;-65
2023/06/10 03:36:29;;;;;;;7.57;5.13;;;19.10;72.20;;;21.80;49.87;101769.25;5036764;28;20286;-63
2023/06/10 03:38:57;;;;;;;7.63;5.33;;;19.10;72.50;;;21.80;49.70;101779.97;5036698;28;20643;-63
2023/06/10 03:41:25;;;;;;;8.47;5.20;;;19.00;72.30;;;21.72;49.71;101777.56;5047916;28;20206;-64
2023/06/10 03:43:52;;;;;;;7.80;5.13;;;19.00;72.30;;;21.69;50.02;101778.00;5036097;28;20187;-64
2023/06/10 03:46:19;;;;;;;7.60;5.07;;;19.00;72.30;;;21.69;50.32;101784.19;5034966;28;20246;-62
2023/06/10 03:48:46;;;;;;;8.07;5.60;;;19.00;72.60;;;21.66;49.96;101783.78;5036626;28;20217;-64
2023/06/10 03:51:13;;;;;;;7.53;4.77;;;18.90;72.20;;;21.59;49.52;101784.69;5036497;28;20273;-64
2023/06/10 03:53:40;;;;;;;7.93;5.10;;;18.90;72.10;;;21.55;49.61;101772.78;5035952;28;20199;-62
2023/06/10 03:56:08;;;;;;;8.40;4.80;;;18.90;72.20;;;21.54;49.66;101770.31;5051483;28;20218;-64
2023/06/10 03:58:35;;;;;;;8.07;4.70;;;18.80;72.10;;;21.51;49.81;101776.13;5035996;28;20205;-67
2023/06/10 04:01:02;;;;;;;5.87;4.43;;;18.80;72.00;;;21.47;49.56;101778.41;5040187;28;20650;-64
2023/06/10 04:03:30;;;;;;;6.80;4.93;;;18.80;72.10;;;21.45;49.48;101777.81;5055816;28;20596;-63
2023/06/10 04:05:57;;;;;;;9.67;4.87;;;18.70;72.00;;;21.41;49.93;101781.16;5055868;28;20201;-64
2023/06/10 04:08:25;;;;;;;8.57;4.83;;;18.70;72.20;;;21.40;49.96;101776.81;5044166;28;20222;-64
2023/06/10 04:10:52;;;;;;;6.40;4.43;;;18.70;72.30;;;21.35;50.08;101782.84;5035023;28;20268;-62
2023/06/10 04:13:20;;;;;;;11.13;4.70;;;18.70;72.10;;;21.33;50.11;101776.91;5035655;28;20554;-63
2023/06/10 04:15:47;;;;;;;7.37;4.53;;;18.60;72.40;;;21.36;49.58;101779.16;5035909;28;20294;-63
2023/06/10 04:18:14;;;;;;;8.27;4.40;;;18.60;72.40;;;21.37;49.78;101786.13;5035824;28;20205;-64
2023/06/10 04:20:42;;;;;;;6.87;4.50;;;18.60;72.20;;;21.36;49.99;101787.19;5036135;28;20539;-64
2023/06/10 04:23:08;;;;;;;5.73;4.23;;;18.60;72.20;;;21.34;49.93;101786.59;5035364;28;20210;-62
2023/06/10 04:25:35;;;;;;;5.30;4.50;;;18.60;72.00;;;21.30;49.96;101790.72;5042196;28;20304;-64
2023/06/10 04:28:03;;;;;;;9.47;7.03;;;18.60;72.00;;;21.28;49.62;101782.09;5055409;28;20222;-64
2023/06/10 04:30:31;;;;;;;13.50;9.90;;;18.60;72.00;;;21.31;50.16;101789.69;5048757;28;20286;-64
2023/06/10 04:32:58;;;;;;;9.87;7.00;;;18.60;72.50;;;21.39;49.66;101792.09;5035050;28;20561;-64
2023/06/10 04:35:27;;;;;;;10.30;4.47;;;18.60;72.40;;;21.45;49.18;101790.38;5035606;28;20210;-62
2023/06/10 04:37:54;;;;;;;7.27;4.70;;;18.60;72.10;;;21.48;49.16;101787.28;5038557;28;20603;-64
2023/06/10 04:40:22;;;;;;;5.30;4.43;;;18.60;71.80;;;21.52;49.38;101794.66;5054487;28;20285;-63
2023/06/10 04:42:49;;;;;;;6.90;4.37;;;18.60;72.00;;;21.62;49.14;101790.63;5054794;28;20225;-64
2023/06/10 04:45:16;;;;;;;6.40;4.20;;;18.70;72.00;;;21.66;48.71;101792.66;5054772;28;20237;-63
2023/06/10 04:47:44;;;;;;;8.37;4.97;;;18.70;71.50;;;21.72;49.03;101796.31;5054919;28;20276;-64
2023/06/10 04:50:11;;;;;;;9.60;5.00;;;18.70;71.60;;;21.78;48.80;101798.09;5054813;28;20197;-62
2023/06/10 04:52:41;;;;;;;6.07;4.70;;;18.80;71.40;;;21.71;48.46;101789.31;5055164;28;20217;-63
2023/06/10 04:55:08;;;;;;;5.53;4.87;;;18.80;70.70;;;21.61;48.35;101792.50;5054830;28;20453;-63
2023/06/10 04:57:36;;;;;;;4.93;4.20;;;18.80;70.50;;;21.52;48.64;101794.66;5055556;28;20243;-63
2023/06/10 05:00:06;;;;;;;5.53;3.97;;;18.80;70.20;;;21.50;48.64;101799.41;5041873;28;20533;-64
2023/06/10 05:02:33;;;;;;;7.83;4.40;;;18.70;70.20;;;21.45;48.17;101793.06;5052780;28;20291;-63
2023/06/10 05:05:01;;;;;;;6.53;4.60;;;18.70;70.30;;;21.48;48.86;101790.78;5054717;28;20238;-63
2023/06/10 05:07:28;;;;;;;4.60;3.97;;;18.70;70.60;;;21.50;48.38;101788.69;5051310;28;20198;-63
2023/06/10 05:09:55;;;;;;;5.47;4.50;;;18.70;71.30;;;21.48;48.37;101788.09;5034954;28;20301;-64
2023/06/10 05:12:22;;;;;;;7.27;5.07;;;18.70;70.30;;;21.46;48.22;101794.72;5034700;28;20190;-64
2023/06/10 05:14:49;;;;;;;7.70;4.60;;;18.70;70.40;;;21.50;48.67;101790.56;5042327;28;20280;-64
2023/06/10 05:17:16;;;;;;;7.53;3.90;;;18.60;70.70;;;21.57;48.46;101785.94;5034608;28;20186;-65
2023/06/10 05:19:44;;;;;;;5.67;4.47;;;18.70;70.80;;;21.65;48.03;101784.84;5034372;28;20190;-64
2023/06/10 05:22:13;;;;;;;6.47;4.47;;;18.70;70.70;;;21.70;47.82;101790.38;5034845;28;20191;-64
2023/06/10 05:24:40;;;;;;;6.73;4.20;;;18.80;70.40;;;21.71;47.74;101794.66;5034196;28;20255;-69
2023/06/10 05:27:07;;;;;;;6.57;4.53;;;18.80;70.20;;;21.78;47.74;101795.41;5048503;28;20685;-65
2023/06/10 05:29:34;;;;;;;5.83;4.37;;;18.80;70.30;;;21.86;47.53;101800.53;5034322;28;20214;-63
2023/06/10 05:32:03;;;;;;;6.77;4.73;;;18.90;70.20;;;21.93;47.29;101802.09;5034461;28;20190;-62
2023/06/10 05:34:30;;;;;;;7.13;4.53;;;18.90;69.90;;;21.94;47.15;101792.22;5039832;28;20643;-63
2023/06/10 05:36:57;;;;;;;7.03;4.77;;;19.00;69.50;;;21.89;47.21;101794.72;5053923;28;20190;-61
2023/06/10 05:39:26;;;;;;;6.97;5.07;;;19.00;69.20;;;21.84;46.99;101806.13;5053873;28;20185;-63
2023/06/10 05:41:53;;;;;;;6.30;4.27;;;19.00;69.20;;;21.86;47.44;101800.53;5052295;28;20643;-63
2023/06/10 05:44:20;;;;;;;6.40;4.17;;;19.00;69.60;;;21.92;47.17;101805.00;5053564;28;20200;-62
2023/06/10 05:46:47;;;;;;;5.03;4.13;;;19.00;69.70;;;21.99;46.88;101806.56;5054148;28;20274;-63
2023/06/10 05:49:14;;;;;;;7.67;4.37;;;19.00;69.50;;;22.04;47.29;101801.34;5054326;28;20678;-63
2023/06/10 05:51:41;;;;;;;5.47;3.83;;;19.00;69.40;;;22.11;46.98;101795.91;5054507;28;20642;-64
2023/06/10 05:54:08;;;;;;;6.13;4.27;;;19.00;69.30;;;22.18;46.59;101799.31;5052476;28;20192;-64
2023/06/10 05:56:36;;;;;;;8.40;4.17;;;19.10;69.10;;;22.17;46.14;101800.38;5047432;28;20273;-62
2023/06/10 05:59:03;;;;;;;6.00;4.10;;;19.10;68.70;;;22.17;46.65;101800.38;5044713;28;20196;-62
2023/06/10 06:01:30;;;;;;;6.20;4.40;;;19.10;68.90;;;22.21;46.12;101798.88;5053518;28;20251;-63
2023/06/10 06:03:57;;;;;;;5.50;4.37;;;19.20;68.90;;;22.28;46.40;101794.25;5053517;28;20201;-61
2023/06/10 06:06:24;;;;;;;5.40;4.57;;;19.10;68.90;;;22.35;46.35;101795.00;5053657;28;20240;-64
2023/06/10 06:08:51;;;;;;;6.43;4.17;;;19.20;68.70;;;22.42;46.01;101797.59;5038051;28;20298;-63
2023/06/10 06:11:18;;;;;;;8.27;4.77;;;19.30;68.70;;;22.39;45.93;101796.19;5042233;28;20212;-64
2023/06/10 06:13:48;;;;;;;8.17;4.90;;;19.30;68.20;;;22.36;45.99;101801.19;5053411;28;20273;-64
2023/06/10 06:16:19;;;;;;;5.70;3.93;;;19.30;68.20;;;22.34;46.00;101809.47;5033384;28;20238;-64
2023/06/10 06:18:46;;;;;;;5.83;4.40;;;19.30;68.20;;;22.32;46.51;101810.75;5033735;28;20218;-64
2023/06/10 06:21:13;;;;;;;7.07;4.77;;;19.30;68.20;;;22.23;46.01;101821.75;5033107;28;20655;-63
2023/06/10 06:23:40;;;;;;;7.33;4.63;;;19.30;67.70;;;22.16;45.93;101823.69;5033098;28;20285;-64
2023/06/10 06:26:07;;;;;;;7.63;4.97;;;19.30;67.70;;;22.16;46.16;101828.25;5045835;28;20241;-65
2023/06/10 06:28:35;;;;;;;7.03;4.53;;;19.30;68.20;;;22.23;46.21;101824.44;5053059;28;20670;-64
2023/06/10 06:31:03;;;;;;;6.13;4.30;;;19.30;68.20;;;22.34;46.47;101817.53;5052930;28;20248;-63
2023/06/10 06:33:30;;;;;;;5.73;4.13;;;19.30;68.40;;;22.49;46.23;101812.56;5053253;28;20200;-64
2023/06/10 06:35:57;;;;;;;5.77;4.00;;;19.40;68.40;;;22.63;45.70;101824.00;5053340;28;20296;-63
2023/06/10 06:38:24;;;;;;;5.93;4.53;;;19.50;68.10;;;22.72;45.59;101811.88;5054990;28;20205;-64
2023/06/10 06:40:51;;;;;;;12.47;9.03;;;19.50;67.60;;;22.82;45.35;101812.94;5048842;28;20229;-64
2023/06/10 06:43:18;;;;;;;11.20;8.10;;;19.60;67.70;;;22.92;45.09;101813.22;5056805;28;20209;-64
2023/06/10 06:45:46;;;;;;;6.70;5.70;;;19.70;67.60;;;23.00;45.03;101809.41;5057362;28;20221;-64
2023/06/10 06:48:14;;;;;;;4.77;3.87;;;19.80;67.40;;;23.09;44.86;101813.38;5057331;28;20239;-64
2023/06/10 06:50:41;;;;;;;7.80;3.97;;;19.90;67.20;;;23.15;44.76;101806.28;5056767;28;20228;-64
2023/06/10 06:53:09;;;;;;;7.57;4.10;;;20.00;66.90;;;23.17;44.25;101810.38;5057013;28;20190;-64
2023/06/10 06:55:35;;;;;;;4.80;3.67;;;20.00;66.40;;;23.19;44.45;101807.44;5056224;28;20225;-64
2023/06/10 06:58:03;;;;;;;5.63;3.80;;;20.10;66.20;;;23.20;44.28;101809.09;5056868;28;20232;-67
2023/06/10 07:00:31;;;;;;;4.93;4.43;;;20.10;66.10;;;23.21;44.44;101805.34;5056114;28;20198;-65
2023/06/10 07:02:59;;;;;;;5.77;4.10;;;20.20;65.90;;;23.24;44.26;101808.41;5056243;28;20554;-66
2023/06/10 07:05:27;;;;;;;3.87;3.33;;;20.20;65.70;;;23.26;44.37;101808.97;5057153;28;20319;-62
2023/06/10 07:07:55;;;;;;;7.43;4.10;;;20.30;65.70;;;23.31;44.27;101811.78;5051207;28;20195;-64
2023/06/10 07:10:24;;;;;;;9.83;4.50;;;20.30;65.50;;;23.34;44.04;101811.31;5056724;28;20221;-63
2023/06/10 07:12:51;;;;;;;6.13;4.57;;;20.40;65.30;;;23.38;43.93;101806.31;5056434;28;20213;-64
2023/06/10 07:15:18;;;;;;;6.63;4.40;;;20.40;65.10;;;23.34;43.96;101811.31;5043902;28;20595;-64
2023/06/10 07:17:45;;;;;;;8.33;4.77;;;20.40;64.60;;;23.29;43.97;101815.75;5036690;28;20198;-64
2023/06/10 07:20:14;;;;;;;8.67;4.60;;;20.50;64.70;;;23.20;44.06;101819.84;5036734;28;20223;-65
2023/06/10 07:22:42;;;;;;;6.10;4.30;;;20.50;65.40;;;23.23;44.12;101824.72;5041725;28;20269;-64
2023/06/10 07:25:09;;;;;;;6.50;3.97;;;20.50;64.70;;;23.26;44.21;101814.34;5056517;28;20228;-64
2023/06/10 07:27:37;;;;;;;5.37;3.93;;;20.40;64.80;;;23.33;44.12;101808.84;5056457;28;20768;-64
2023/06/10 07:30:09;;;;;;;6.10;4.10;;;20.50;64.90;;;23.36;44.17;101813.81;5056122;28;20281;-63
2023/06/10 07:32:36;;;;;;;6.03;4.43;;;20.50;65.00;;;23.30;44.25;101814.69;5056498;28;20214;-65
2023/06/10 07:35:05;;;;;;;7.23;4.30;;;20.50;64.80;;;23.38;44.22;101811.72;5056252;28;20569;-67
2023/06/10 07:37:32;;;;;;;5.30;4.03;;;20.60;64.90;;;23.43;44.01;101817.19;5046261;28;20187;-64
2023/06/10 07:40:01;;;;;;;5.87;4.70;;;20.60;64.60;;;23.43;44.24;101818.03;5036831;28;20194;-65
2023/06/10 07:42:28;;;;;;;7.00;4.37;;;20.70;64.40;;;23.43;44.02;101814.50;5055184;28;20285;-64
2023/06/10 07:44:55;;;;;;;6.03;3.70;;;20.70;64.30;;;23.47;44.12;101821.06;5055898;28;20209;-63
2023/06/10 07:47:22;;;;;;;7.97;4.40;;;20.80;64.40;;;23.54;44.02;101816.38;5056038;28;20213;-64
2023/06/10 07:49:49;;;;;;;6.30;4.17;;;20.80;64.40;;;23.58;43.80;101810.31;5055360;28;20210;-64
2023/06/10 07:52:16;;;;;;;5.13;3.87;;;20.90;64.30;;;23.71;43.70;101803.88;5043354;28;20507;-64
2023/06/10 07:54:42;;;;;;;7.50;5.73;;;20.90;64.20;;;23.82;43.40;101805.72;5035725;28;20353;-64
2023/06/10 07:57:11;;;;;;;6.87;4.30;;;21.00;63.90;;;23.96;43.39;101800.94;5055345;28;20557;-62
2023/06/10 07:59:38;;;;;;;4.77;3.83;;;21.10;63.90;;;24.10;43.21;101805.81;5055906;28;20533;-64
2023/06/10 08:02:05;;;;;;;5.93;4.37;;;21.20;63.80;;;24.25;43.12;101801.84;5055017;28;20185;-64
2023/06/10 08:04:34;;;;;;;6.43;4.67;;;21.30;63.60;;;24.37;42.50;101803.41;5055552;28;20241;-64
2023/06/10 08:07:03;;;;;;;4.63;3.80;;;21.40;63.20;;;24.47;42.56;101794.72;5047303;28;20289;-64
2023/06/10 08:09:30;;;;;;;8.30;5.63;;;21.50;63.00;;;24.57;41.96;101794.91;5035744;28;20265;-64
2023/06/10 08:11:57;;;;;;;5.73;3.90;;;21.60;62.50;;;24.66;41.87;101788.91;5035935;28;20225;-64
2023/06/10 08:14:25;;;;;;;5.10;3.63;;;21.70;62.50;;;24.95;41.93;101797.78;5040195;28;20237;-65
2023/06/10 08:16:52;;;;;;;7.23;3.70;;;21.80;62.50;;;25.83;40.94;101794.31;5045833;28;20245;-64
2023/06/10 08:19:19;;;;;;;7.47;4.00;;;22.00;62.70;;;27.21;38.22;101790.97;5035520;28;20187;-64
2023/06/10 08:21:46;;;;;;;8.50;4.93;;;22.40;62.30;;;28.91;36.09;101794.75;5035756;28;20195;-64
2023/06/10 08:24:15;;;;;;;5.03;4.53;;;23.10;62.00;;;30.48;32.74;101785.97;5048391;28;20200;-64
2023/06/10 08:26:42;;;;;;;6.57;3.73;;;23.90;59.00;;;31.80;30.97;101778.28;5055230;28;20217;-64
2023/06/10 08:29:12;;;;;;;5.47;4.03;;;24.80;55.70;;;32.79;29.14;101787.31;5054902;28;20190;-64
2023/06/10 08:31:44;;;;;;;4.23;3.60;;;25.60;54.70;;;33.94;27.39;101778.13;5043116;28;20191;-65
2023/06/10 08:34:11;;;;;;;6.80;5.50;;;26.40;51.20;;;35.13;26.31;101788.53;5034843;28;20261;-66
2023/06/10 08:36:38;;;;;;;6.90;3.83;;;27.20;50.80;;;36.27;24.74;101785.56;5035117;28;20199;-64
2023/06/10 08:39:06;;;;;;;5.97;3.67;;;28.10;47.90;;;37.27;23.13;101781.47;5034712;28;20586;-65
2023/06/10 08:41:40;;;;;;;5.83;3.60;;;28.90;45.90;;;38.05;22.54;101779.16;5048446;28;20614;-66
2023/06/10 08:44:18;;;;;;;4.70;3.53;;;29.70;43.60;;;38.61;21.51;101778.56;5054200;28;20272;-64
2023/06/10 08:46:51;;;;;;;10.83;7.37;;;30.40;41.30;;;38.94;21.31;101783.31;5054171;28;20760;-65
2023/06/10 08:49:22;;;;;;;5.15;3.80;;;31.10;39.00;;;39.04;20.50;101766.31;5054764;28;20210;-65
2023/06/10 08:51:52;;;;;;;4.90;3.72;;;31.50;36.90;;;39.27;20.28;101773.06;5054638;28;20665;-64
2023/06/10 08:54:27;;;;;;;5.35;3.58;;;31.90;35.90;;;39.83;20.05;101772.16;5054034;28;20243;-66
2023/06/10 08:56:57;;;;;;;4.53;3.88;;;32.30;35.70;;;40.36;19.41;101772.97;5054952;28;20189;-65
2023/06/10 08:59:25;;;;;;;5.20;3.65;;;32.60;34.70;;;40.82;19.40;101782.59;5054520;28;20171;-65
2023/06/10 09:01:54;;;;;;;6.57;3.80;;;33.10;34.90;;;41.46;18.32;101774.03;5050958;28;20216;-64
2023/06/10 09:04:24;;;;;;;6.32;3.60;;;33.40;33.30;;;42.03;17.95;101765.88;5049407;28;20665;-63
2023/06/10 09:06:52;;;;;;;5.95;5.32;;;33.80;32.40;;;42.24;17.35;101769.13;5053990;28;20258;-66
2023/06/10 09:09:20;;;;;;;5.28;4.13;;;34.10;31.40;;;42.52;17.21;101768.13;5035136;28;20240;-64
2023/06/10 09:11:47;;;;;;;5.30;3.83;;;34.40;31.10;;;42.68;16.70;101774.34;5034315;28;20198;-64
2023/06/10 09:14:16;;;;;;;3.90;3.50;;;34.70;29.90;;;42.68;16.72;101774.34;5033466;28;20273;-64
2023/06/10 09:16:43;;;;;;;5.45;3.40;;;34.90;29.70;;;43.10;16.62;101773.19;5034022;28;20190;-64
2023/06/10 09:19:12;;;;;;;5.45;4.32;;;35.10;29.50;;;43.21;16.25;101767.81;5035081;28;20198;-64
2023/06/10 09:21:39;;;;;;;13.80;12.40;;;35.30;29.00;;;43.44;16.10;101768.63;5034021;28;20215;-64
2023/06/10 09:24:06;;;;;;;8.32;4.30;;;35.50;28.80;;;43.86;15.57;101776.03;5033724;28;20194;-65
2023/06/10 09:26:33;;;;;;;4.32;3.38;;;35.70;28.50;;;44.06;15.15;101772.72;5048673;28;20193;-63
2023/06/10 09:29:04;;;;;;;6.82;4.05;;;35.80;28.30;;;44.04;15.42;101777.03;5054223;28;20198;-64
2023/06/10 09:31:34;;;;;;;4.85;3.65;;;36.10;27.50;;;44.00;15.25;101771.47;5053754;28;20208;-63
2023/06/10 09:34:08;;;;;;;4.13;3.72;;;36.20;27.40;;;44.17;15.41;101770.13;5053482;28;20730;-64
2023/06/10 09:36:38;;;;;;;6.45;4.22;;;36.20;27.50;;;44.39;15.22;101771.94;5043373;28;20674;-63
2023/06/10 09:39:15;;;;;;;7.00;4.82;;;36.30;27.40;;;44.65;15.38;101776.66;5034054;28;20210;-64
2023/06/10 09:41:43;;;;;;;5.45;3.90;;;36.40;27.60;;;44.94;14.44;101762.66;5049029;28;20229;-63
2023/06/10 09:44:13;;;;;;;3.70;3.30;;;36.50;27.20;;;45.21;14.07;101768.88;5053141;28;20542;-64
2023/06/10 09:46:41;;;;;;;4.38;3.30;;;36.60;26.90;;;45.62;14.35;101764.81;5053134;28;20198;-63
2023/06/10 09:49:09;;;;;;;7.35;3.65;;;36.70;26.80;;;46.06;13.96;101753.53;5053937;28;20206;-63
2023/06/10 09:51:37;;;;;;;8.40;3.60;;;36.90;26.60;;;46.54;13.75;101753.31;5053080;28;20205;-63
2023/06/10 09:54:04;;;;;;;4.55;4.05;;;37.10;26.60;;;46.69;13.19;101757.75;5052317;28;20229;-64
2023/06/10 09:56:35;;;;;;;5.47;3.67;;;37.20;25.80;;;46.52;13.68;101755.72;5053471;28;20193;-64
2023/06/10 09:59:06;;;;;;;8.63;7.85;;;37.40;26.00;;;46.78;13.28;101758.16;5053329;28;20292;-64
2023/06/10 10:01:33;;;;;;;6.88;5.07;;;37.50;26.10;;;47.23;13.06;101754.63;5053825;28;20254;-63
2023/06/10 10:04:01;;;;;;;6.50;4.15;;;37.60;26.00;;;47.57;12.36;101764.13;5052672;28;20214;-64
2023/06/10 10:06:29;;;;;;;3.92;3.60;;;37.90;25.00;;;47.66;12.14;101760.16;5053423;28;20292;-63
2023/06/10 10:08:57;;;;;;;3.42;3.13;;;38.10;24.50;;;47.57;12.04;101761.34;5038673;28;20208;-63
2023/06/10 10:11:26;;;;;;;4.75;3.78;;;38.30;24.00;;;47.46;12.13;101752.22;5033101;28;20225;-63
2023/06/10 10:13:54;;;;;;;5.90;3.63;;;38.30;24.00;;;47.48;12.45;101749.00;5032447;28;20277;-63
2023/06/10 10:16:27;;;;;;;4.25;3.80;;;38.30;24.70;;;47.65;12.13;101747.38;5044575;28;20296;-63